createdAt,value
2018-12-07T00:00:09.593Z,98130.93
2018-12-07T00:02:39.003Z,98132.59
2018-12-07T00:05:08.632Z,98135.56
2018-12-07T00:07:37.993Z,98131.94
2018-12-07T00:10:07.632Z,98137.19
2018-12-07T00:12:36.934Z,98139.69
2018-12-07T00:15:08.151Z,98132.47
2018-12-07T00:17:37.566Z,98131.77
2018-12-07T00:20:09.199Z,98131.25
2018-12-07T00:22:39.962Z,98129.40
2018-12-07T00:25:09.579Z,98124.59
2018-12-07T00:27:38.870Z,98119.32
2018-12-07T00:30:08.590Z,98116.59
2018-12-07T00:32:37.882Z,98115.75
2018-12-07T00:35:07.536Z,98115.17
2018-12-07T00:37:36.871Z,98108.40
2018-12-07T00:40:07.978Z,98117.64
2018-12-07T00:42:37.359Z,98116.59
2018-12-07T00:45:07.323Z,98107.06
2018-12-07T00:47:36.745Z,98107.98
2018-12-07T00:50:06.897Z,98104.11
2018-12-07T00:52:36.194Z,98100.31
2018-12-07T00:57:53.312Z,98097.24
2018-12-07T01:00:22.660Z,98089.05
2018-12-07T01:02:52.025Z,98083.69
2018-12-07T01:05:21.318Z,98087.57
2018-12-07T01:07:50.658Z,98084.27
2018-12-07T01:10:20.099Z,98090.93
2018-12-07T01:12:49.431Z,98090.58
2018-12-07T01:15:18.760Z,98087.86
2018-12-07T01:17:48.103Z,98093.19
2018-12-07T01:20:17.476Z,98089.19
2018-12-07T01:22:46.907Z,98081.80
2018-12-07T01:25:16.247Z,98080.50
2018-12-07T01:27:45.624Z,98087.19
2018-12-07T01:30:15.105Z,98086.27
2018-12-07T01:32:44.585Z,98086.84
2018-12-07T01:35:14.241Z,98087.89
2018-12-07T01:37:43.574Z,98082.84
2018-12-07T01:40:13.043Z,98082.03
2018-12-07T01:42:42.399Z,98082.47
2018-12-07T01:45:11.944Z,98078.27
2018-12-07T01:47:46.328Z,98074.44
2018-12-07T01:50:16.891Z,98072.50
2018-12-07T01:52:46.255Z,98077.25
2018-12-07T01:55:15.698Z,98071.66
2018-12-07T01:57:45.058Z,98074.94
2018-12-07T02:00:14.970Z,98072.38
2018-12-07T02:02:44.611Z,98070.44
2018-12-07T02:05:14.161Z,98066.77
2018-12-07T02:07:43.879Z,98059.31
2018-12-07T02:10:13.354Z,98054.80
2018-12-07T02:12:42.715Z,98056.63
2018-12-07T02:15:12.068Z,98052.39
2018-12-07T02:17:41.448Z,98055.58
2018-12-07T02:20:10.885Z,98046.53
2018-12-07T02:22:40.232Z,98054.38
2018-12-07T02:25:09.676Z,98051.31
2018-12-07T02:27:44.250Z,98041.52
2018-12-07T02:30:13.789Z,98033.56
2018-12-07T02:32:43.234Z,98025.00
2018-12-07T02:35:12.537Z,98028.59
2018-12-07T02:37:41.863Z,98023.98
2018-12-07T02:40:11.268Z,98022.38
2018-12-07T02:42:40.656Z,98020.61
2018-12-07T02:45:10.092Z,98027.82
2018-12-07T02:47:40.463Z,98019.07
2018-12-07T02:50:10.187Z,98017.47
2018-12-07T02:52:39.618Z,98016.33
2018-12-07T02:55:09.234Z,98012.04
2018-12-07T02:57:38.789Z,98008.09
2018-12-07T03:00:09.423Z,98004.83
2018-12-07T03:02:38.724Z,98003.50
2018-12-07T03:05:08.192Z,97996.02
2018-12-07T03:07:37.558Z,97994.69
2018-12-07T03:10:07.287Z,98011.95
2018-12-07T03:12:36.681Z,97995.50
2018-12-07T03:15:06.808Z,97986.64
2018-12-07T03:17:36.151Z,97984.03
2018-12-07T03:20:06.316Z,97971.02
2018-12-07T03:22:35.951Z,97957.66
2018-12-07T03:25:06.220Z,97963.30
2018-12-07T03:27:38.425Z,97957.97
2018-12-07T03:30:07.932Z,97957.97
2018-12-07T03:32:37.488Z,97951.76
2018-12-07T03:35:07.133Z,97960.89
2018-12-07T03:37:36.431Z,97964.06
2018-12-07T03:40:06.379Z,97963.20
2018-12-07T03:42:35.784Z,97964.14
2018-12-07T03:45:05.447Z,97957.77
2018-12-07T03:47:34.787Z,97963.94
2018-12-07T03:50:04.276Z,97965.25
2018-12-07T03:52:33.576Z,97962.80
2018-12-07T03:55:02.923Z,97954.23
2018-12-07T03:57:32.350Z,97952.64
2018-12-07T04:00:01.663Z,97952.07
2018-12-07T04:02:31.255Z,97951.47
2018-12-07T04:05:00.581Z,97947.76
2018-12-07T04:07:29.989Z,97947.71
2018-12-07T04:09:59.379Z,97940.26
2018-12-07T04:12:28.691Z,97940.47
2018-12-07T04:14:58.068Z,97944.69
2018-12-07T04:17:27.410Z,97933.50
2018-12-07T04:19:56.753Z,97935.31
2018-12-07T04:22:26.133Z,97926.20
2018-12-07T04:24:55.722Z,97930.53
2018-12-07T04:27:25.271Z,97923.77
2018-12-07T04:30:10.393Z,97929.34
2018-12-07T04:32:39.949Z,97920.06
2018-12-07T04:35:09.369Z,97920.30
2018-12-07T04:37:38.712Z,97922.53
2018-12-07T04:40:08.219Z,97918.02
2018-12-07T04:42:37.532Z,97906.33
2018-12-07T04:45:07.095Z,97905.78
2018-12-07T04:47:36.545Z,97909.60
2018-12-07T04:50:05.820Z,97902.68
2018-12-07T04:52:35.325Z,97896.92
2018-12-07T04:55:05.730Z,97899.59
2018-12-07T04:57:35.199Z,97909.20
2018-12-07T05:00:05.804Z,97904.60
2018-12-07T05:02:35.113Z,97897.60
2018-12-07T05:05:05.000Z,97898.34
2018-12-07T05:07:34.402Z,97896.34
2018-12-07T05:10:04.266Z,97896.20
2018-12-07T05:12:33.563Z,97890.66
2018-12-07T05:15:02.833Z,97893.83
2018-12-07T05:17:32.185Z,97887.18
2018-12-07T05:20:01.473Z,97887.63
2018-12-07T05:22:30.807Z,97883.31
2018-12-07T05:25:01.329Z,97884.15
2018-12-07T05:27:30.893Z,97876.21
2018-12-07T05:30:00.220Z,97881.94
2018-12-07T05:32:29.895Z,97881.44
2018-12-07T05:34:59.213Z,97875.50
2018-12-07T05:37:28.583Z,97877.89
2018-12-07T05:39:57.924Z,97873.35
2018-12-07T05:42:27.316Z,97879.41
2018-12-07T05:44:56.655Z,97875.30
2018-12-07T05:47:26.000Z,97869.59
2018-12-07T05:49:55.472Z,97872.48
2018-12-07T05:52:24.764Z,97868.34
2018-12-07T05:54:55.325Z,97864.87
2018-12-07T05:57:24.891Z,97861.35
2018-12-07T05:59:54.374Z,97865.66
2018-12-07T06:02:23.861Z,97868.44
2018-12-07T06:04:53.168Z,97867.16
2018-12-07T06:07:22.508Z,97865.30
2018-12-07T06:09:51.891Z,97860.96
2018-12-07T06:12:21.512Z,97863.58
2018-12-07T06:14:50.988Z,97859.53
2018-12-07T06:17:20.277Z,97863.75
2018-12-07T06:19:49.579Z,97856.79
2018-12-07T06:22:18.874Z,97859.44
2018-12-07T06:24:48.233Z,97854.06
2018-12-07T06:27:17.788Z,97857.73
2018-12-07T06:29:47.274Z,97860.16
2018-12-07T06:32:16.786Z,97855.83
2018-12-07T06:34:46.107Z,97853.95
2018-12-07T06:37:15.391Z,97852.27
2018-12-07T06:39:44.708Z,97847.28
2018-12-07T06:42:14.229Z,97846.77
2018-12-07T06:44:43.683Z,97849.45
2018-12-07T06:47:12.960Z,97845.39
2018-12-07T06:49:42.266Z,97844.19
2018-12-07T06:52:11.557Z,97842.50
2018-12-07T06:54:41.064Z,97840.11
2018-12-07T06:57:10.481Z,97838.48
2018-12-07T06:59:40.042Z,97839.06
2018-12-07T07:02:09.461Z,97828.34
2018-12-07T07:04:38.819Z,97827.91
2018-12-07T07:07:08.224Z,97828.18
2018-12-07T07:09:37.599Z,97816.36
2018-12-07T07:12:06.982Z,97818.28
2018-12-07T07:14:36.460Z,97817.16
2018-12-07T07:17:06.055Z,97818.42
2018-12-07T07:19:35.397Z,97814.42
2018-12-07T07:22:04.977Z,97812.80
2018-12-07T07:24:34.262Z,97810.44
2018-12-07T07:27:03.617Z,97808.81
2018-12-07T07:29:33.035Z,97809.33
2018-12-07T07:32:02.479Z,97802.14
2018-12-07T07:34:31.811Z,97793.87
2018-12-07T07:37:01.155Z,97796.09
2018-12-07T07:39:30.504Z,97795.77
2018-12-07T07:41:59.851Z,97801.24
2018-12-07T07:44:29.173Z,97799.83
2018-12-07T07:46:58.521Z,97807.03
2018-12-07T07:49:27.871Z,97791.87
2018-12-07T07:51:57.197Z,97801.03
2018-12-07T07:54:26.614Z,97792.80
2018-12-07T07:56:55.945Z,97792.98
2018-12-07T07:59:25.270Z,97786.45
2018-12-07T08:01:54.989Z,97780.28
2018-12-07T08:04:24.426Z,97781.86
2018-12-07T08:06:53.781Z,97779.19
2018-12-07T08:09:23.097Z,97783.20
2018-12-07T08:11:52.396Z,97783.54
2018-12-07T08:14:21.779Z,97781.64
2018-12-07T08:16:51.168Z,97778.30
2018-12-07T08:19:20.516Z,97770.49
2018-12-07T08:21:49.878Z,97768.94
2018-12-07T08:24:19.256Z,97766.27
2018-12-07T08:26:48.609Z,97758.20
2018-12-07T08:29:17.947Z,97749.64
2018-12-07T08:31:47.341Z,97740.89
2018-12-07T08:34:16.804Z,97732.22
2018-12-07T08:36:46.226Z,97718.38
2018-12-07T08:39:15.529Z,97714.42
2018-12-07T08:41:45.021Z,97713.48
2018-12-07T08:44:14.615Z,97718.53
2018-12-07T08:46:44.116Z,97706.53
2018-12-07T08:52:00.358Z,97710.34
2018-12-07T08:54:29.842Z,97707.14
2018-12-07T08:56:59.263Z,97701.08
2018-12-07T08:59:28.594Z,97695.66
2018-12-07T09:01:58.054Z,97697.84
2018-12-07T09:04:27.620Z,97697.84
2018-12-07T09:06:57.053Z,97698.89
2018-12-07T09:09:26.387Z,97692.47
2018-12-07T09:11:55.871Z,97700.80
2018-12-07T09:14:25.271Z,97694.61
2018-12-07T09:16:54.849Z,97695.22
2018-12-07T09:19:24.184Z,97678.44
2018-12-07T09:21:53.613Z,97684.99
2018-12-07T09:24:23.425Z,97676.18
2018-12-07T09:26:52.945Z,97673.55
2018-12-07T09:29:22.282Z,97677.52
2018-12-07T09:31:51.733Z,97669.02
2018-12-07T09:34:21.058Z,97674.04
2018-12-07T09:36:50.393Z,97667.38
2018-12-07T09:39:19.898Z,97659.60
2018-12-07T09:41:49.290Z,97657.95
2018-12-07T09:44:18.637Z,97661.42
2018-12-07T09:46:47.969Z,97654.27
2018-12-07T09:49:17.337Z,97658.76
2018-12-07T09:51:46.670Z,97649.98
2018-12-07T09:54:16.045Z,97644.65
2018-12-07T09:56:45.361Z,97642.75
2018-12-07T09:59:14.831Z,97639.59
2018-12-07T10:01:44.304Z,97639.60
2018-12-07T10:04:14.776Z,97653.98
2018-12-07T10:06:44.288Z,97647.32
2018-12-07T10:09:13.685Z,97642.22
2018-12-07T10:11:42.955Z,97636.13
2018-12-07T10:14:12.266Z,97629.45
2018-12-07T10:16:41.576Z,97622.27
2018-12-07T10:19:10.949Z,97625.77
2018-12-07T10:21:40.229Z,97614.54
2018-12-07T10:24:09.571Z,97611.06
2018-12-07T10:26:38.884Z,97612.93
2018-12-07T10:29:08.216Z,97599.63
2018-12-07T10:31:37.533Z,97607.91
2018-12-07T10:34:06.943Z,97601.48
2018-12-07T10:36:36.339Z,97597.52
2018-12-07T10:39:07.690Z,97590.28
2018-12-07T10:41:37.045Z,97589.27
2018-12-07T10:44:06.397Z,97582.66
2018-12-07T10:46:35.720Z,97572.78
2018-12-07T10:49:05.158Z,97570.09
2018-12-07T10:51:34.498Z,97572.53
2018-12-07T10:54:03.817Z,97559.44
2018-12-07T10:56:33.124Z,97560.55
2018-12-07T10:59:02.477Z,97551.00
2018-12-07T11:01:37.088Z,97544.86
2018-12-07T11:04:11.729Z,97536.61
2018-12-07T11:06:46.269Z,97536.61
2018-12-07T11:09:20.763Z,97530.17
2018-12-07T11:14:52.527Z,97509.59
2018-12-07T11:17:27.230Z,97513.08
2018-12-07T11:20:01.800Z,97495.19
2018-12-07T11:22:36.588Z,97487.45
2018-12-07T11:25:11.284Z,97489.86
2018-12-07T11:27:45.871Z,97486.66
2018-12-07T11:30:20.481Z,97488.77
2018-12-07T11:32:55.149Z,97488.52
2018-12-07T11:35:28.586Z,97478.66
2018-12-07T11:37:57.929Z,97476.77
2018-12-07T11:40:28.666Z,97468.77
2018-12-07T11:42:58.469Z,97465.30
2018-12-07T11:45:27.833Z,97458.89
2018-12-07T11:47:57.277Z,97446.34
2018-12-07T11:50:26.657Z,97443.92
2018-12-07T11:52:55.975Z,97435.14
2018-12-07T11:55:25.320Z,97443.41
2018-12-07T11:57:54.638Z,97441.01
2018-12-07T12:00:24.089Z,97443.95
2018-12-07T12:02:53.416Z,97437.27
2018-12-07T12:05:22.765Z,97427.66
2018-12-07T12:07:52.151Z,97422.58
2018-12-07T12:10:21.439Z,97413.23
2018-12-07T12:12:50.708Z,97404.95
2018-12-07T12:15:20.097Z,97399.59
2018-12-07T12:17:49.477Z,97396.14
2018-12-07T12:20:18.797Z,97390.27
2018-12-07T12:22:48.124Z,97386.00
2018-12-07T12:25:17.417Z,97386.27
2018-12-07T12:27:46.698Z,97385.48
2018-12-07T12:30:17.819Z,97392.69
2018-12-07T12:32:47.313Z,97382.78
2018-12-07T12:35:16.697Z,97361.97
2018-12-07T12:37:46.047Z,97348.63
2018-12-07T12:40:15.453Z,97355.04
2018-12-07T12:42:44.762Z,97345.97
2018-12-07T12:45:14.103Z,97335.56
2018-12-07T12:47:43.513Z,97330.74
2018-12-07T12:50:18.333Z,97335.28
2018-12-07T12:52:47.819Z,97328.33
2018-12-07T12:55:17.105Z,97322.48
2018-12-07T12:57:46.433Z,97298.45
2018-12-07T13:00:15.887Z,97280.33
2018-12-07T13:02:45.316Z,97295.78
2018-12-07T13:05:14.663Z,97290.47
2018-12-07T13:07:44.002Z,97293.92
2018-12-07T13:10:13.508Z,97288.59
2018-12-07T13:12:42.809Z,97281.14
2018-12-07T13:15:12.200Z,97255.52
2018-12-07T13:17:41.559Z,97249.33
2018-12-07T13:20:10.942Z,97256.52
2018-12-07T13:22:41.425Z,97262.05
2018-12-07T13:25:10.752Z,97246.86
2018-12-07T13:27:40.093Z,97245.76
2018-12-07T13:30:09.643Z,97240.39
2018-12-07T13:32:38.963Z,97237.72
2018-12-07T13:35:08.458Z,97230.30
2018-12-07T13:37:37.776Z,97226.00
2018-12-07T13:40:07.673Z,97213.77
2018-12-07T13:42:37.107Z,97197.79
2018-12-07T13:45:08.807Z,97183.39
2018-12-07T13:47:38.486Z,97189.81
2018-12-07T13:50:13.367Z,97197.78
2018-12-07T13:52:42.733Z,97192.73
2018-12-07T13:55:12.162Z,97180.20
2018-12-07T13:57:41.715Z,97173.28
2018-12-07T14:00:11.310Z,97160.78
2018-12-07T14:02:40.888Z,97161.87
2018-12-07T14:05:10.475Z,97165.59
2018-12-07T14:07:40.210Z,97160.25
2018-12-07T14:10:09.821Z,97161.37
2018-12-07T14:12:39.162Z,97162.94
2018-12-07T14:15:09.665Z,97151.52
2018-12-07T14:17:39.333Z,97147.76
2018-12-07T14:20:10.014Z,97144.03
2018-12-07T14:22:39.644Z,97127.25
2018-12-07T14:25:09.476Z,97115.53
2018-12-07T14:27:38.955Z,97121.38
2018-12-07T14:30:10.657Z,97117.91
2018-12-07T14:32:40.348Z,97116.57
2018-12-07T14:35:10.238Z,97108.31
2018-12-07T14:37:39.934Z,97108.34
2018-12-07T14:40:09.728Z,97106.73
2018-12-07T14:42:39.181Z,97108.84
2018-12-07T14:45:09.186Z,97107.25
2018-12-07T14:47:38.667Z,97102.71
2018-12-07T14:50:08.813Z,97081.95
2018-12-07T14:52:38.269Z,97087.29
2018-12-07T14:55:08.090Z,97079.83
2018-12-07T14:57:37.792Z,97073.16
2018-12-07T15:00:09.049Z,97069.43
2018-12-07T15:02:38.592Z,97058.26
2018-12-07T15:05:08.575Z,97061.70
2018-12-07T15:07:37.921Z,97055.33
2018-12-07T15:10:08.779Z,97057.44
2018-12-07T15:12:38.469Z,97054.53
2018-12-07T15:15:08.239Z,97062.23
2018-12-07T15:17:37.860Z,97051.60
2018-12-07T15:20:09.062Z,97048.66
2018-12-07T15:22:38.621Z,97034.53
2018-12-07T15:25:08.613Z,97021.75
2018-12-07T15:27:38.140Z,97026.02
2018-12-07T15:30:09.416Z,97033.48
2018-12-07T15:32:39.191Z,97026.28
2018-12-07T15:35:09.802Z,97025.48
2018-12-07T15:37:39.422Z,97038.25
2018-12-07T15:40:10.833Z,97036.94
2018-12-07T15:42:40.336Z,97039.60
2018-12-07T15:45:10.155Z,97032.40
2018-12-07T15:47:39.791Z,97024.69
2018-12-07T15:50:10.264Z,97005.80
2018-12-07T15:52:40.010Z,97008.45
2018-12-07T15:55:09.734Z,97010.56
2018-12-07T15:57:39.142Z,97010.28
2018-12-07T16:00:10.236Z,97015.34
2018-12-07T16:02:39.695Z,97015.08
2018-12-07T16:05:09.478Z,96994.08
2018-12-07T16:07:39.820Z,96985.01
2018-12-07T16:10:09.943Z,96978.34
2018-12-07T16:12:39.907Z,96979.94
2018-12-07T16:15:09.684Z,96997.52
2018-12-07T16:17:39.226Z,96994.86
2018-12-07T16:20:15.709Z,96999.13
2018-12-07T16:22:45.072Z,96988.22
2018-12-07T16:25:14.693Z,96989.01
2018-12-07T16:27:44.237Z,96976.49
2018-12-07T16:30:13.754Z,96988.20
2018-12-07T16:32:43.333Z,96985.02
2018-12-07T16:35:12.975Z,96988.22
2018-12-07T16:37:49.271Z,96986.61
2018-12-07T16:40:18.751Z,96972.78
2018-12-07T16:42:48.160Z,96979.43
2018-12-07T16:45:17.931Z,97005.77
2018-12-07T16:47:47.602Z,97001.51
2018-12-07T16:50:17.148Z,96974.11
2018-12-07T16:52:46.574Z,96965.59
2018-12-07T16:55:16.161Z,96954.40
2018-12-07T16:57:45.786Z,96937.10
2018-12-07T17:00:15.353Z,96917.42
2018-12-07T17:02:44.723Z,96908.38
2018-12-07T17:05:14.338Z,96904.64
2018-12-07T17:07:43.725Z,96876.16
2018-12-07T17:10:13.874Z,96869.23
2018-12-07T17:12:43.630Z,96860.20
2018-12-07T17:15:13.730Z,96867.38
2018-12-07T17:17:43.113Z,96876.98
2018-12-07T17:20:12.779Z,96872.98
2018-12-07T17:22:42.522Z,96869.52
2018-12-07T17:25:12.256Z,96871.63
2018-12-07T17:27:41.788Z,96876.42
2018-12-07T17:30:11.686Z,96861.25
2018-12-07T17:32:41.220Z,96852.50
2018-12-07T17:35:10.778Z,96843.70
2018-12-07T17:37:40.289Z,96834.38
2018-12-07T17:40:10.027Z,96818.41
2018-12-07T17:42:39.522Z,96822.92
2018-12-07T17:45:09.202Z,96823.70
2018-12-07T17:47:38.779Z,96818.36
2018-12-07T17:50:09.541Z,96818.36
2018-12-07T17:52:38.938Z,96817.84
2018-12-07T17:55:08.426Z,96816.48
2018-12-07T17:57:37.864Z,96804.25
2018-12-07T18:00:10.354Z,96810.94
2018-12-07T18:02:39.799Z,96805.88
2018-12-07T18:05:09.497Z,96798.14
2018-12-07T18:07:39.101Z,96790.44
2018-12-07T18:10:10.038Z,96793.11
2018-12-07T18:12:39.795Z,96790.20
2018-12-07T18:15:09.856Z,96788.64
2018-12-07T18:17:39.273Z,96797.13
2018-12-07T18:20:09.314Z,96783.58
2018-12-07T18:22:38.782Z,96785.44
2018-12-07T18:25:08.881Z,96784.14
2018-12-07T18:27:38.405Z,96789.70
2018-12-07T18:30:08.359Z,96762.08
2018-12-07T18:32:37.912Z,96750.89
2018-12-07T18:35:07.913Z,96753.53
2018-12-07T18:37:37.627Z,96746.61
2018-12-07T18:40:08.271Z,96750.60
2018-12-07T18:42:37.722Z,96753.28
2018-12-07T18:45:07.682Z,96750.60
2018-12-07T18:47:37.241Z,96750.63
2018-12-07T18:50:08.302Z,96746.37
2018-12-07T18:52:37.835Z,96750.38
2018-12-07T18:55:10.210Z,96758.07
2018-12-07T18:57:39.805Z,96747.17
2018-12-07T19:00:10.413Z,96740.80
2018-12-07T19:02:39.912Z,96749.32
2018-12-07T19:05:09.516Z,96750.38
2018-12-07T19:07:39.311Z,96741.05
2018-12-07T19:10:09.019Z,96744.26
2018-12-07T19:12:38.604Z,96742.92
2018-12-07T19:15:09.674Z,96752.52
2018-12-07T19:17:39.704Z,96750.38
2018-12-07T19:20:09.702Z,96754.36
2018-12-07T19:22:39.201Z,96742.67
2018-12-07T19:25:09.310Z,96740.00
2018-12-07T19:27:38.816Z,96738.68
2018-12-07T19:30:14.747Z,96742.14
2018-12-07T19:32:43.010Z,96737.36
2018-12-07T19:35:12.698Z,96743.74
2018-12-07T19:37:42.258Z,96758.34
2018-12-07T19:40:11.699Z,96746.11
2018-12-07T19:42:41.285Z,96766.07
2018-12-07T19:45:11.663Z,96753.56
2018-12-07T19:47:41.186Z,96767.14
2018-12-07T19:50:11.512Z,96769.77
2018-12-07T19:52:40.928Z,96778.31
2018-12-07T19:55:10.841Z,96772.44
2018-12-07T19:57:40.492Z,96787.04
2018-12-07T20:00:13.851Z,96802.45
2018-12-07T20:02:42.925Z,96812.56
2018-12-07T20:05:12.621Z,96812.58
2018-12-07T20:07:42.287Z,96820.84
2018-12-07T20:10:11.945Z,96827.50
2018-12-07T20:12:41.344Z,96832.56
2018-12-07T20:15:11.009Z,96849.56
2018-12-07T20:17:40.873Z,96872.41
2018-12-07T20:20:11.438Z,96980.52
2018-12-07T20:22:41.246Z,96959.81
2018-12-07T20:25:10.889Z,96969.47
2018-12-07T20:27:40.429Z,96967.73
2018-12-07T20:30:10.209Z,96965.45
2018-12-07T20:32:39.912Z,96974.59
2018-12-07T20:35:09.663Z,96984.02
2018-12-07T20:37:39.306Z,96974.68
2018-12-07T20:40:09.296Z,96983.56
2018-12-07T20:42:38.972Z,96983.43
2018-12-07T20:45:08.918Z,96984.41
2018-12-07T20:47:38.455Z,96980.42
2018-12-07T20:50:08.781Z,96973.00
2018-12-07T20:52:38.132Z,97004.48
2018-12-07T20:55:08.165Z,96993.45
2018-12-07T20:57:37.657Z,97015.62
2018-12-07T21:00:09.503Z,97012.92
2018-12-07T21:02:39.079Z,97025.32
2018-12-07T21:07:36.534Z,97001.19
2018-12-07T21:11:18.074Z,97017.71
2018-12-07T21:14:11.403Z,97002.24
2018-12-07T21:17:12.242Z,97011.50
2018-12-07T21:19:50.300Z,97023.78
2018-12-07T21:22:19.720Z,97021.39
2018-12-07T21:24:49.226Z,97034.59
2018-12-07T21:27:18.946Z,97043.83
2018-12-07T21:30:10.378Z,97050.79
2018-12-07T21:32:39.670Z,97061.38
2018-12-07T21:35:11.777Z,97055.77
2018-12-07T21:37:41.152Z,97067.77
2018-12-07T21:40:18.553Z,97070.95
2018-12-07T21:42:48.162Z,97061.64
2018-12-07T21:45:17.757Z,97063.70
2018-12-07T21:48:52.709Z,97063.83
2018-12-07T21:52:25.420Z,97060.25
2018-12-07T21:54:55.106Z,97067.04
2018-12-07T21:57:24.880Z,97065.98
2018-12-07T21:59:54.422Z,97066.93
2018-12-07T22:02:23.826Z,97067.56
2018-12-07T22:04:53.601Z,97078.03
2018-12-07T22:07:23.091Z,97092.80
2018-12-07T22:09:52.568Z,97094.28
2018-12-07T22:12:21.972Z,97092.79
2018-12-07T22:14:51.285Z,97103.33
2018-12-07T22:17:20.905Z,97117.66
2018-12-07T22:19:50.321Z,97126.23
2018-12-07T22:22:19.763Z,97129.87
2018-12-07T22:24:49.180Z,97145.16
2018-12-07T22:27:18.629Z,97136.68
2018-12-07T22:29:48.230Z,97124.61
2018-12-07T22:32:17.843Z,97124.77
2018-12-07T22:34:47.289Z,97133.02
2018-12-07T22:37:16.593Z,97140.48
2018-12-07T22:39:46.076Z,97157.92
2018-12-07T22:42:15.635Z,97162.95
2018-12-07T22:44:45.318Z,97173.59
2018-12-07T22:47:15.082Z,97196.52
2018-12-07T22:49:44.564Z,97195.44
2018-12-07T22:52:13.907Z,97197.31
2018-12-07T22:54:43.261Z,97215.34
2018-12-07T22:57:12.572Z,97215.41
2018-12-07T22:59:41.844Z,97222.72
2018-12-07T23:02:11.813Z,97225.95
2018-12-07T23:04:41.210Z,97223.34
2018-12-07T23:07:10.501Z,97236.05
2018-12-07T23:09:39.829Z,97231.43
2018-12-07T23:12:09.196Z,97234.63
2018-12-07T23:14:38.610Z,97243.51
2018-12-07T23:17:07.921Z,97244.71
2018-12-07T23:19:37.321Z,97247.55
2018-12-07T23:22:06.712Z,97249.91
2018-12-07T23:24:36.024Z,97258.56
2018-12-07T23:27:05.396Z,97256.91
2018-12-07T23:29:34.800Z,97264.27
2018-12-07T23:32:04.260Z,97258.56
2018-12-07T23:34:33.747Z,97264.65
2018-12-07T23:37:03.117Z,97277.51
2018-12-07T23:39:32.427Z,97266.11
2018-12-07T23:42:01.913Z,97276.56
2018-12-07T23:44:31.320Z,97258.08
2018-12-07T23:47:00.741Z,97269.41
2018-12-07T23:49:30.106Z,97269.26
2018-12-07T23:51:59.642Z,97269.62
2018-12-07T23:54:29.020Z,97282.48
2018-12-07T23:56:58.330Z,97294.13
2018-12-07T23:59:27.651Z,97309.38
